Time;durP1;ratioP1;P1;durP2;ratioP2;P2;SDS_P1;SDS_P2;PMS_P1;PMS_P2;Temp;Humidity;BMP_temperature;BMP_pressure;BME280_temperature;BME280_humidity;BME280_pressure;Samples;Min_cycle;Max_cycle;Signal;HPM_P1;HPM_P2
2022/05/17 00:00:38;;;;;;;10.05;6.00;;;15.10;99.90;;;;;;5052252;28;20449;-84
2022/05/17 00:03:03;;;;;;;13.88;6.78;;;15.30;99.90;;;;;;5038835;28;20037;-84
2022/05/17 00:05:30;;;;;;;12.02;6.63;;;15.30;99.90;;;;;;5058013;28;20170;-85
2022/05/17 00:07:56;;;;;;;13.93;6.10;;;15.00;99.90;;;;;;5051180;28;20041;-85
2022/05/17 00:10:23;;;;;;;12.50;6.22;;;;;;;;;;5048351;28;20135;-84
2022/05/17 00:12:49;;;;;;;12.68;6.82;;;;;;;;;;5056193;28;20048;-85
2022/05/17 00:15:15;;;;;;;13.70;6.85;;;;;;;;;;5054952;28;20047;-85
2022/05/17 00:17:41;;;;;;;15.40;7.45;;;;;;;;;;5046825;28;20048;-84
2022/05/17 00:20:08;;;;;;;17.85;6.88;;;;;;;;;;5055982;28;20114;-84
2022/05/17 00:22:34;;;;;;;14.13;6.85;;;;;;;;;;5063627;28;20041;-84
2022/05/17 00:25:00;;;;;;;16.45;7.85;;;;;;;;;;5065287;28;20047;-84
2022/05/17 00:27:26;;;;;;;13.73;7.78;;;;;;;;;;5065919;28;20085;-85
2022/05/17 00:29:52;;;;;;;16.73;7.70;;;;;;;;;;5065245;28;20049;-84
2022/05/17 00:32:18;;;;;;;13.80;7.32;;;;;;;;;;5040130;28;20037;-84
2022/05/17 00:34:46;;;;;;;15.20;7.93;;;;;;;;;;5038897;28;20037;-84
2022/05/17 00:37:15;;;;;;;;;;;14.70;99.90;;;;;;5043869;28;20049;-84
2022/05/17 00:39:41;;;;;;;13.43;7.07;;;;;;;;;;5038089;28;20199;-84
2022/05/17 00:42:07;;;;;;;16.27;8.05;;;;;;;;;;5036182;28;20045;-84
2022/05/17 00:44:45;;;;;;;14.20;8.05;;;14.60;99.90;;;;;;5042647;28;20049;-83
2022/05/17 00:47:17;;;;;;;13.30;7.55;;;14.60;99.90;;;;;;5042058;28;20045;-83
2022/05/17 00:50:03;;;;;;;16.58;8.70;;;14.60;99.90;;;;;;5036934;28;20402;-83
2022/05/17 00:52:51;;;;;;;14.97;7.93;;;14.50;99.90;;;;;;5043178;28;20065;-83
2022/05/17 00:55:21;;;;;;;15.85;8.10;;;14.50;99.90;;;;;;5044886;28;20095;-83
2022/05/17 00:57:54;;;;;;;22.08;8.75;;;14.50;99.90;;;;;;5044620;28;20049;-83
2022/05/17 01:00:20;;;;;;;17.77;7.93;;;14.40;99.90;;;;;;5045881;28;20061;-84
2022/05/17 01:02:50;;;;;;;16.15;8.38;;;14.50;99.90;;;;;;5039738;28;20053;-85
2022/05/17 01:05:17;;;;;;;14.85;7.63;;;14.50;99.90;;;;;;5040041;28;20033;-84
2022/05/17 01:07:47;;;;;;;17.67;8.15;;;14.40;99.90;;;;;;5042089;28;20471;-85
2022/05/17 01:10:12;;;;;;;14.30;7.53;;;14.40;99.90;;;;;;5045900;28;20123;-85
2022/05/17 01:12:40;;;;;;;14.70;7.75;;;14.40;99.90;;;;;;5041834;28;20041;-84
2022/05/17 01:15:09;;;;;;;16.63;7.78;;;14.40;99.90;;;;;;5040471;28;20124;-84
2022/05/17 01:17:38;;;;;;;14.68;7.97;;;14.40;99.90;;;;;;5044002;28;20033;-85
2022/05/17 01:20:06;;;;;;;12.63;7.97;;;;;;;;;;5040886;28;20044;-85
2022/05/17 01:22:31;;;;;;;;;;;14.30;99.90;;;;;;5044117;28;20254;-85
2022/05/17 01:24:57;;;;;;;16.00;7.70;;;14.30;99.90;;;;;;5042035;28;20007;-85
2022/05/17 01:27:53;;;;;;;14.18;7.82;;;14.20;99.90;;;;;;5044195;28;20033;-85
2022/05/17 01:30:26;;;;;;;14.30;7.87;;;14.20;99.90;;;;;;5041452;28;20091;-85
2022/05/17 01:32:52;;;;;;;17.80;8.35;;;14.20;99.90;;;;;;5045428;28;20111;-84
2022/05/17 01:35:19;;;;;;;14.00;7.60;;;14.20;99.90;;;;;;5046402;28;20402;-83
2022/05/17 01:37:45;;;;;;;17.90;7.88;;;14.20;99.90;;;;;;5041804;28;20124;-83
2022/05/17 01:40:12;;;;;;;17.27;8.10;;;14.20;99.90;;;;;;5042392;28;20043;-83
2022/05/17 01:42:38;;;;;;;15.20;7.95;;;14.20;99.90;;;;;;5044606;28;20077;-83
2022/05/17 01:45:05;;;;;;;18.50;7.95;;;14.20;99.90;;;;;;5043467;28;20072;-83
2022/05/17 01:47:31;;;;;;;15.90;7.68;;;14.10;99.90;;;;;;5046452;28;20111;-83
2022/05/17 01:49:56;;;;;;;18.75;7.55;;;14.10;99.90;;;;;;5042029;28;20037;-83
2022/05/17 01:52:22;;;;;;;16.83;7.63;;;14.10;99.90;;;;;;5044709;28;20191;-83
2022/05/17 01:54:47;;;;;;;15.50;7.38;;;14.10;99.90;;;;;;5041921;28;20340;-84
2022/05/17 01:57:13;;;;;;;16.63;7.75;;;14.00;99.90;;;;;;5046659;28;20124;-83
2022/05/17 01:59:39;;;;;;;18.17;8.02;;;14.10;99.90;;;;;;5036127;28;20165;-83
2022/05/17 02:02:04;;;;;;;16.75;8.20;;;14.00;99.90;;;;;;5039851;28;20465;-83
2022/05/17 02:04:31;;;;;;;12.05;7.50;;;14.00;99.90;;;;;;5042043;28;20393;-83
2022/05/17 02:06:56;;;;;;;15.15;8.20;;;14.00;99.90;;;;;;5045430;28;20036;-83
2022/05/17 02:09:22;;;;;;;11.18;7.30;;;14.00;99.90;;;;;;5039544;28;20056;-83
2022/05/17 02:11:48;;;;;;;17.50;7.90;;;13.90;99.90;;;;;;5042729;28;21439;-83
2022/05/17 02:14:14;;;;;;;16.58;7.65;;;13.90;99.90;;;;;;5043787;28;20037;-83
2022/05/17 02:16:40;;;;;;;15.80;7.78;;;13.90;99.90;;;;;;5040991;28;20088;-83
2022/05/17 02:19:08;;;;;;;16.98;7.88;;;13.90;99.90;;;;;;5043516;28;20414;-84
2022/05/17 02:21:36;;;;;;;17.33;7.97;;;13.80;99.90;;;;;;5045961;28;20041;-85
2022/05/17 02:24:03;;;;;;;15.68;7.93;;;13.90;99.90;;;;;;5039571;28;20725;-85
2022/05/17 02:26:30;;;;;;;14.70;8.75;;;13.90;99.90;;;;;;5026727;28;20442;-84
2022/05/17 02:28:55;;;;;;;12.25;8.05;;;13.90;99.90;;;;;;5043380;28;20034;-84
2022/05/17 02:31:21;;;;;;;18.27;8.10;;;13.80;99.90;;;;;;5042771;28;20553;-84
2022/05/17 02:33:47;;;;;;;17.63;7.95;;;13.90;99.90;;;;;;5043339;28;20051;-84
2022/05/17 02:36:13;;;;;;;13.85;7.30;;;13.90;99.90;;;;;;5043149;28;20499;-84
2022/05/17 02:38:40;;;;;;;14.77;7.53;;;13.80;99.90;;;;;;5044417;28;20124;-84
2022/05/17 02:41:06;;;;;;;18.52;7.88;;;13.90;99.90;;;;;;5041890;28;20037;-84
2022/05/17 02:43:31;;;;;;;16.30;7.95;;;13.90;99.90;;;;;;5045948;28;20619;-83
2022/05/17 02:45:57;;;;;;;15.30;7.72;;;13.90;99.90;;;;;;5040549;28;20516;-83
2022/05/17 02:48:22;;;;;;;14.45;7.47;;;13.90;99.90;;;;;;5041555;28;20064;-82
2022/05/17 02:50:48;;;;;;;15.88;7.82;;;13.90;99.90;;;;;;5037410;28;20083;-83
2022/05/17 02:53:13;;;;;;;21.08;9.02;;;13.90;99.90;;;;;;5040696;28;20053;-83
2022/05/17 02:55:39;;;;;;;12.43;8.10;;;14.00;99.90;;;;;;5038418;28;20604;-83
2022/05/17 02:58:05;;;;;;;11.50;7.78;;;14.00;99.90;;;;;;5044385;28;20153;-83
2022/05/17 03:00:32;;;;;;;16.77;8.85;;;13.90;99.90;;;;;;5041480;28;20049;-83
2022/05/17 03:02:58;;;;;;;13.05;9.13;;;13.70;99.90;;;;;;5038731;28;20042;-83
2022/05/17 03:05:24;;;;;;;17.95;8.40;;;13.60;99.90;;;;;;5037646;28;21601;-83
2022/05/17 03:07:50;;;;;;;16.80;8.45;;;13.70;99.90;;;;;;5041723;28;20045;-83
2022/05/17 03:10:17;;;;;;;20.33;8.57;;;13.70;99.90;;;;;;5040458;28;20556;-83
2022/05/17 03:12:43;;;;;;;14.63;8.25;;;13.70;99.90;;;;;;5044896;28;20049;-83
2022/05/17 03:15:09;;;;;;;16.58;8.05;;;13.70;99.90;;;;;;5041865;28;20401;-83
2022/05/17 03:17:35;;;;;;;16.27;7.93;;;13.80;99.90;;;;;;5041127;28;20076;-83
2022/05/17 03:20:00;;;;;;;14.35;8.02;;;13.80;99.90;;;;;;5039303;28;20065;-82
2022/05/17 03:22:26;;;;;;;15.02;8.02;;;13.80;99.90;;;;;;5043435;28;20053;-83
2022/05/17 03:24:51;;;;;;;13.70;8.40;;;13.60;99.90;;;;;;5037829;28;20037;-83
2022/05/17 03:27:20;;;;;;;18.48;8.50;;;13.60;99.90;;;;;;5041886;28;20041;-83
2022/05/17 03:29:46;;;;;;;20.40;8.95;;;13.50;99.90;;;;;;5040690;28;20038;-83
2022/05/17 03:32:11;;;;;;;14.40;7.75;;;13.50;99.90;;;;;;5040976;28;20044;-83
2022/05/17 03:34:38;;;;;;;15.20;8.88;;;13.50;99.90;;;;;;5038826;28;20249;-83
2022/05/17 03:37:03;;;;;;;16.10;8.23;;;13.50;99.90;;;;;;5039419;28;20409;-83
2022/05/17 03:39:29;;;;;;;14.38;8.40;;;;;;;;;;5041384;28;20045;-82
2022/05/17 03:41:55;;;;;;;14.15;8.13;;;13.60;99.90;;;;;;5037993;28;20444;-83
2022/05/17 03:44:21;;;;;;;16.10;8.95;;;13.50;99.90;;;;;;5042304;28;20094;-83
2022/05/17 03:46:46;;;;;;;15.60;8.80;;;13.50;99.90;;;;;;5040613;28;20048;-84
2022/05/17 03:49:12;;;;;;;17.30;8.85;;;13.50;99.90;;;;;;5040642;28;20095;-83
2022/05/17 03:51:38;;;;;;;16.75;8.75;;;13.50;99.90;;;;;;5037561;28;20478;-84
2022/05/17 03:54:04;;;;;;;15.10;8.77;;;13.50;99.90;;;;;;5037693;28;20144;-83
2022/05/17 03:56:29;;;;;;;16.25;8.95;;;13.50;99.90;;;;;;5039302;28;20303;-84
2022/05/17 03:58:55;;;;;;;17.98;9.65;;;13.40;99.90;;;;;;5041443;28;20033;-83
2022/05/17 04:01:20;;;;;;;14.70;8.93;;;13.60;99.90;;;;;;5038897;28;20060;-83
2022/05/17 04:03:46;;;;;;;13.00;8.95;;;13.60;99.90;;;;;;5026235;28;20036;-83
2022/05/17 04:06:12;;;;;;;13.88;8.30;;;13.60;99.90;;;;;;5036245;28;20376;-83
2022/05/17 04:08:37;;;;;;;20.58;9.77;;;13.70;99.90;;;;;;5042656;28;20411;-83
2022/05/17 04:11:04;;;;;;;16.67;8.75;;;13.60;99.90;;;;;;5036822;28;20037;-83
2022/05/17 04:13:31;;;;;;;18.67;8.82;;;13.80;99.90;;;;;;5045819;28;20471;-83
2022/05/17 04:15:58;;;;;;;12.25;8.20;;;13.70;99.90;;;;;;5034526;28;20521;-83
2022/05/17 04:18:24;;;;;;;14.40;8.65;;;;;;;;;;5029978;28;20052;-83
2022/05/17 04:20:50;;;;;;;13.32;8.18;;;;;;;;;;5032201;28;20095;-83
2022/05/17 04:23:16;;;;;;;13.00;8.10;;;14.00;99.90;;;;;;5034531;28;20116;-82
2022/05/17 04:25:42;;;;;;;17.40;8.75;;;;;;;;;;5026723;28;20038;-83
2022/05/17 04:28:08;;;;;;;15.38;7.80;;;14.10;99.90;;;;;;5042313;28;20410;-85
2022/05/17 04:30:34;;;;;;;17.25;7.55;;;;;;;;;;5041092;28;20029;-86
2022/05/17 04:33:01;;;;;;;16.92;7.45;;;14.30;99.90;;;;;;5018084;28;20545;-85
2022/05/17 04:35:27;;;;;;;17.30;7.78;;;14.30;99.90;;;;;;5045274;28;20056;-85
2022/05/17 04:37:52;;;;;;;14.60;8.32;;;14.40;99.90;;;;;;5038717;28;20056;-85
2022/05/17 04:40:19;;;;;;;11.95;8.15;;;14.70;99.90;;;;;;5030728;28;20482;-83
2022/05/17 04:42:46;;;;;;;16.30;7.38;;;15.30;99.90;;;;;;5025397;28;20140;-82
2022/05/17 04:45:16;;;;;;;15.25;8.55;;;16.10;99.90;;;;;;5040489;28;20502;-82
2022/05/17 04:47:43;;;;;;;12.77;8.18;;;17.20;99.90;;;;;;5034628;28;20048;-82
2022/05/17 04:50:11;;;;;;;11.03;6.83;;;17.50;99.90;;;;;;5029726;28;20557;-83
2022/05/17 04:52:37;;;;;;;11.63;7.10;;;18.30;99.90;;;;;;5034480;28;20045;-83
2022/05/17 04:55:04;;;;;;;14.18;7.20;;;19.50;99.90;;;;;;5036585;28;20045;-83
2022/05/17 04:57:29;;;;;;;10.88;6.55;;;19.40;99.90;;;;;;5045353;28;20048;-84
2022/05/17 04:59:57;;;;;;;10.05;6.05;;;19.90;99.90;;;;;;5035108;28;20042;-84
2022/05/17 05:02:22;;;;;;;12.63;6.00;;;20.30;99.90;;;;;;5020491;28;20084;-83
2022/05/17 05:04:48;;;;;;;12.45;6.40;;;20.80;99.90;;;;;;5030112;28;20077;-84
2022/05/17 05:07:13;;;;;;;13.57;6.30;;;21.10;99.90;;;;;;5037743;28;20037;-83
2022/05/17 05:09:39;;;;;;;10.02;5.60;;;21.30;99.90;;;;;;5042426;28;20049;-83
2022/05/17 05:12:05;;;;;;;10.25;5.55;;;21.80;99.90;;;;;;5040347;28;20090;-83
2022/05/17 05:14:30;;;;;;;8.68;4.90;;;22.00;99.90;;;;;;5040204;28;20045;-83
2022/05/17 05:16:57;;;;;;;12.00;5.00;;;22.00;99.90;;;;;;5036775;28;20513;-86
2022/05/17 05:19:23;;;;;;;9.60;5.00;;;21.70;99.90;;;;;;5036353;28;20501;-88
2022/05/17 05:21:49;;;;;;;10.63;4.97;;;21.40;99.90;;;;;;5038049;28;20045;-86
2022/05/17 05:24:14;;;;;;;10.10;4.78;;;21.00;99.90;;;;;;5039268;28;20045;-90
2022/05/17 05:26:40;;;;;;;9.38;4.75;;;21.00;99.90;;;;;;5041882;28;20033;-88
2022/05/17 05:29:06;;;;;;;6.70;3.90;;;21.00;99.90;;;;;;5042683;28;20037;-87
2022/05/17 05:31:32;;;;;;;11.45;4.75;;;20.80;99.90;;;;;;5037719;28;20037;-86
2022/05/17 05:34:00;;;;;;;15.32;4.85;;;20.80;99.90;;;;;;5040221;28;20033;-84
2022/05/17 05:36:27;;;;;;;11.50;4.55;;;20.90;99.90;;;;;;5039736;28;20045;-87
2022/05/17 05:38:53;;;;;;;8.35;4.43;;;21.50;99.90;;;;;;5039836;28;20103;-85
2022/05/17 05:41:18;;;;;;;9.45;4.57;;;21.70;99.90;;;;;;5039426;28;20040;-86
2022/05/17 05:43:44;;;;;;;9.63;5.10;;;22.20;99.90;;;;;;5036864;28;20120;-84
2022/05/17 05:46:10;;;;;;;8.98;4.22;;;22.80;99.90;;;;;;5042053;28;20090;-84
2022/05/17 05:48:36;;;;;;;9.48;4.45;;;23.20;99.90;;;;;;5041147;28;20072;-83
2022/05/17 05:51:02;;;;;;;9.95;4.35;;;23.40;99.90;;;;;;5043224;28;20053;-83
2022/05/17 05:53:27;;;;;;;9.85;4.50;;;23.20;99.90;;;;;;5039443;28;20490;-83
2022/05/17 05:56:01;;;;;;;9.88;4.53;;;22.70;99.90;;;;;;5047162;28;20107;-83
2022/05/17 05:58:30;;;;;;;9.13;4.13;;;22.50;99.90;;;;;;5041049;28;20041;-83
2022/05/17 06:00:56;;;;;;;9.63;4.32;;;21.80;99.90;;;;;;5043869;28;20110;-83
2022/05/17 06:03:22;;;;;;;8.75;4.75;;;21.70;99.90;;;;;;5042341;28;20474;-83
2022/05/17 06:05:47;;;;;;;9.05;4.38;;;21.40;99.90;;;;;;5035325;28;20048;-83
2022/05/17 06:08:15;;;;;;;10.02;4.97;;;21.20;99.90;;;;;;5035617;28;20051;-83
2022/05/17 06:10:41;;;;;;;9.10;4.25;;;21.20;99.90;;;;;;5030483;28;20056;-83
2022/05/17 06:13:08;;;;;;;11.80;4.68;;;21.20;99.90;;;;;;5041196;28;20056;-88
2022/05/17 06:15:33;;;;;;;8.13;4.63;;;21.30;99.90;;;;;;5019277;28;20072;-86
2022/05/17 06:18:03;;;;;;;9.43;4.72;;;21.50;99.90;;;;;;5035614;28;20140;-85
2022/05/17 06:20:29;;;;;;;9.25;4.70;;;21.90;99.90;;;;;;5037529;28;20465;-85
2022/05/17 06:22:55;;;;;;;10.38;4.63;;;22.00;99.90;;;;;;5040462;28;20048;-85
2022/05/17 06:25:21;;;;;;;7.63;4.47;;;21.90;99.90;;;;;;5031142;28;20053;-86
2022/05/17 06:27:47;;;;;;;8.45;4.53;;;21.70;99.90;;;;;;5034274;28;20044;-85
2022/05/17 06:30:13;;;;;;;9.65;4.75;;;21.70;99.90;;;;;;5023019;28;20043;-85
2022/05/17 06:32:40;;;;;;;7.95;4.50;;;21.70;99.90;;;;;;5056849;28;20144;-85
2022/05/17 06:35:06;;;;;;;10.55;5.45;;;22.10;99.90;;;;;;5046255;28;20414;-85
2022/05/17 06:37:31;;;;;;;8.80;4.53;;;22.60;99.90;;;;;;5042126;28;20060;-85
2022/05/17 06:39:57;;;;;;;14.18;5.22;;;23.10;99.90;;;;;;5042260;28;20037;-88
2022/05/17 06:42:23;;;;;;;9.52;5.28;;;23.20;99.90;;;;;;5033744;28;20051;-88
2022/05/17 06:44:48;;;;;;;8.65;4.53;;;23.20;99.90;;;;;;5050886;28;20071;-86
2022/05/17 06:47:14;;;;;;;10.43;4.28;;;23.40;99.90;;;;;;5051317;28;20037;-86
2022/05/17 06:49:40;;;;;;;11.73;4.90;;;23.40;99.90;;;;;;5045230;28;20047;-87
2022/05/17 06:52:08;;;;;;;7.82;4.82;;;23.60;99.90;;;;;;5050304;28;20045;-87
2022/05/17 06:54:34;;;;;;;;;;;23.70;99.90;;;;;;5046071;28;20068;-87
2022/05/17 06:57:07;;;;;;;7.85;4.78;;;23.90;99.90;;;;;;5047573;28;19921;-87
2022/05/17 06:59:35;;;;;;;8.93;4.43;;;24.20;99.90;;;;;;5039797;28;20499;-87
2022/05/17 07:02:01;;;;;;;11.10;4.32;;;24.60;99.90;;;;;;5039630;28;20497;-88
2022/05/17 07:04:28;;;;;;;9.60;4.43;;;25.00;99.90;;;;;;5041459;28;20068;-86
2022/05/17 07:06:55;;;;;;;7.37;3.97;;;25.20;99.90;;;;;;5037854;28;20067;-85
2022/05/17 07:09:22;;;;;;;10.52;4.43;;;25.40;99.90;;;;;;5035314;28;20073;-84
2022/05/17 07:14:39;;;;;;;9.57;4.20;;;25.30;99.90;;;;;;5040341;28;20056;-84
2022/05/17 07:17:34;;;;;;;9.48;4.00;;;25.30;99.90;;;;;;5037185;28;20128;-84
2022/05/17 07:20:01;;;;;;;10.18;4.40;;;25.30;99.90;;;;;;5030431;28;20049;-84
2022/05/17 07:22:26;;;;;;;10.45;4.60;;;25.50;99.90;;;;;;5039848;28;20049;-83
2022/05/17 07:24:53;;;;;;;15.63;5.00;;;25.40;99.90;;;;;;5041001;28;20052;-84
2022/05/17 07:27:19;;;;;;;7.90;4.13;;;25.30;99.90;;;;;;5039455;28;20654;-84
2022/05/17 07:29:45;;;;;;;8.65;4.47;;;25.20;99.90;;;;;;5042794;28;20082;-84
2022/05/17 07:32:10;;;;;;;8.80;4.15;;;24.90;99.90;;;;;;5039487;28;20541;-84
2022/05/17 07:34:36;;;;;;;10.98;4.38;;;24.60;99.90;;;;;;5041726;28;20033;-84
2022/05/17 07:37:03;;;;;;;9.15;4.55;;;24.30;99.90;;;;;;5032621;28;20041;-84
2022/05/17 07:39:29;;;;;;;;;;;23.70;99.90;;;;;;5040936;28;20045;-84
2022/05/17 07:41:54;;;;;;;9.70;3.72;;;23.60;99.90;;;;;;5041176;28;19927;-84
2022/05/17 07:44:20;;;;;;;10.23;4.57;;;23.40;99.90;;;;;;5035986;28;20061;-84
2022/05/17 07:46:45;;;;;;;11.25;4.35;;;23.20;99.90;;;;;;5038413;28;20039;-84
2022/05/17 07:49:11;;;;;;;10.98;4.95;;;23.10;99.90;;;;;;5045926;28;20401;-84
2022/05/17 07:51:37;;;;;;;7.43;4.72;;;22.90;99.90;;;;;;5047855;28;20488;-84
2022/05/17 07:54:02;;;;;;;10.63;4.55;;;22.80;99.90;;;;;;5037644;28;20055;-84
2022/05/17 07:56:28;;;;;;;9.52;4.65;;;22.70;99.90;;;;;;5030823;28;20505;-84
2022/05/17 07:58:54;;;;;;;10.05;4.65;;;22.60;99.90;;;;;;5034691;28;20045;-84
2022/05/17 08:01:19;;;;;;;8.73;4.30;;;22.40;99.90;;;;;;5032042;28;20077;-85
2022/05/17 08:03:45;;;;;;;9.82;4.22;;;22.40;99.90;;;;;;5038380;28;20029;-84
2022/05/17 08:06:10;;;;;;;9.07;4.53;;;22.40;99.90;;;;;;5031303;28;20049;-84
2022/05/17 08:08:36;;;;;;;8.90;4.15;;;22.40;99.90;;;;;;5035545;28;20037;-85
2022/05/17 08:11:01;;;;;;;10.10;4.78;;;22.40;99.90;;;;;;5038232;28;20131;-84
2022/05/17 08:13:27;;;;;;;10.55;4.43;;;22.30;99.90;;;;;;5043312;28;20037;-85
2022/05/17 08:15:53;;;;;;;10.20;4.22;;;22.40;99.90;;;;;;5039627;28;20084;-84
2022/05/17 08:18:19;;;;;;;9.93;4.32;;;22.50;99.90;;;;;;5040625;28;20083;-85
2022/05/17 08:20:46;;;;;;;12.48;4.28;;;22.40;99.90;;;;;;5040761;28;20482;-85
2022/05/17 08:23:13;;;;;;;8.07;4.32;;;22.30;99.90;;;;;;5033056;28;20041;-85
2022/05/17 08:28:22;;;;;;;10.57;4.05;;;22.50;99.90;;;;;;5041925;28;20049;-85
2022/05/17 08:30:48;;;;;;;9.50;3.53;;;22.80;99.90;;;;;;5045143;28;20048;-85
2022/05/17 08:33:16;;;;;;;8.57;3.65;;;22.70;99.90;;;;;;5035004;28;20037;-83
2022/05/17 08:35:49;;;;;;;11.48;3.92;;;22.90;99.90;;;;;;5041589;28;20103;-85
2022/05/17 08:38:25;;;;;;;10.60;3.80;;;22.80;99.90;;;;;;5035889;28;20044;-83
2022/05/17 08:41:13;;;;;;;7.97;3.72;;;22.80;99.90;;;;;;5038645;28;20041;-86
2022/05/17 08:43:54;;;;;;;13.90;4.55;;;23.00;99.90;;;;;;5040660;28;20053;-87
2022/05/17 08:46:58;;;;;;;8.65;3.38;;;23.20;99.90;;;;;;5041434;28;20045;-85
2022/05/17 08:49:50;;;;;;;20.45;5.28;;;22.80;99.90;;;;;;5042801;28;20107;-85
2022/05/17 08:52:19;;;;;;;10.18;4.00;;;22.60;99.90;;;;;;5041980;28;20056;-85
2022/05/17 08:54:58;;;;;;;10.55;3.88;;;22.40;99.90;;;;;;5047141;28;20095;-85
2022/05/17 08:57:41;;;;;;;8.52;3.42;;;22.90;99.90;;;;;;5028903;28;20553;-85
2022/05/17 09:00:15;;;;;;;15.38;4.00;;;22.80;99.90;;;;;;5031622;28;20041;-86
2022/05/17 09:02:45;;;;;;;11.13;3.45;;;22.70;99.90;;;;;;5035626;28;20041;-85
2022/05/17 09:05:29;;;;;;;8.93;3.08;;;22.80;99.90;;;;;;5032062;28;20076;-86
2022/05/17 09:08:25;;;;;;;10.85;3.78;;;23.00;99.90;;;;;;5037865;28;20177;-85
2022/05/17 09:11:05;;;;;;;18.23;4.68;;;23.30;99.90;;;;;;5036961;28;20052;-86
2022/05/17 09:13:49;;;;;;;8.20;3.40;;;23.10;99.90;;;;;;5044417;28;20405;-86
2022/05/17 09:16:15;;;;;;;8.75;3.05;;;23.10;99.90;;;;;;5045670;28;20052;-86
2022/05/17 09:18:44;;;;;;;8.18;3.20;;;23.30;99.90;;;;;;5041615;28;20033;-86
2022/05/17 09:21:41;;;;;;;9.85;2.97;;;23.40;99.90;;;;;;5040780;28;20117;-86
2022/05/17 09:24:12;;;;;;;10.02;3.20;;;23.50;99.90;;;;;;5024429;28;20064;-86
2022/05/17 09:26:48;;;;;;;7.72;3.17;;;23.50;99.90;;;;;;5042443;28;20045;-85
2022/05/17 09:29:18;;;;;;;9.73;3.92;;;23.50;99.90;;;;;;5045300;28;20053;-86
2022/05/17 09:31:59;;;;;;;9.15;3.75;;;23.60;99.90;;;;;;5043243;28;20051;-87
2022/05/17 09:34:45;;;;;;;12.10;3.83;;;23.80;99.90;;;;;;5039609;28;20037;-87
2022/05/17 09:37:17;;;;;;;8.60;3.40;;;22.70;99.90;;;;;;5046269;28;20066;-87
2022/05/17 09:39:52;;;;;;;10.60;3.75;;;23.00;99.90;;;;;;5039414;28;20386;-85
2022/05/17 09:42:42;;;;;;;8.75;3.83;;;23.00;99.90;;;;;;5034432;28;20486;-86
2022/05/17 09:45:16;;;;;;;9.20;3.75;;;23.30;99.90;;;;;;5020890;28;20486;-86
2022/05/17 09:48:04;;;;;;;9.45;3.70;;;23.70;99.90;;;;;;5037678;28;20038;-86
2022/05/17 09:53:37;;;;;;;10.15;4.10;;;24.10;99.90;;;;;;5043838;28;20115;-87
2022/05/17 09:56:06;;;;;;;16.27;4.38;;;23.80;99.90;;;;;;5042773;28;20049;-87
2022/05/17 09:58:41;;;;;;;15.82;4.80;;;24.10;99.90;;;;;;5045198;28;20116;-86
2022/05/17 10:01:19;;;;;;;9.73;3.70;;;24.20;99.90;;;;;;5035988;28;20040;-84
2022/05/17 10:04:07;;;;;;;10.07;3.63;;;24.10;99.90;;;;;;5045458;28;20046;-87
2022/05/17 10:06:42;;;;;;;11.48;3.90;;;23.90;99.90;;;;;;5040849;28;20132;-85
2022/05/17 10:09:13;;;;;;;11.80;3.33;;;23.90;99.90;;;;;;5033812;28;20045;-86
2022/05/17 10:11:48;;;;;;;7.03;3.10;;;23.60;99.90;;;;;;5042205;28;20493;-86
2022/05/17 10:14:28;;;;;;;9.82;2.80;;;23.60;99.90;;;;;;5044965;28;20037;-86
2022/05/17 10:17:00;;;;;;;9.68;3.05;;;23.70;99.90;;;;;;5037619;28;20045;-86
2022/05/17 10:19:44;;;;;;;8.35;3.10;;;23.70;99.90;;;;;;5035146;28;20052;-87
2022/05/17 10:22:24;;;;;;;9.98;3.90;;;23.70;99.90;;;;;;5041576;28;20067;-87
2022/05/17 10:25:08;;;;;;;10.52;4.47;;;23.90;99.90;;;;;;5041985;28;20053;-86
2022/05/17 10:27:42;;;;;;;11.85;5.22;;;23.90;99.90;;;;;;5044835;28;20041;-87
2022/05/17 10:30:19;;;;;;;10.52;4.38;;;23.90;99.90;;;;;;5041348;28;20040;-87
2022/05/17 10:33:02;;;;;;;14.05;4.88;;;23.70;99.90;;;;;;5033631;28;20037;-87
2022/05/17 10:35:50;;;;;;;10.65;4.45;;;23.60;99.90;;;;;;5043112;28;20056;-87
2022/05/17 10:38:25;;;;;;;10.13;4.80;;;23.60;99.90;;;;;;5047851;28;20043;-86
2022/05/17 10:40:53;;;;;;;11.30;5.47;;;23.60;99.90;;;;;;5038241;28;20048;-86
2022/05/17 10:43:24;;;;;;;12.00;5.80;;;23.50;99.90;;;;;;5047451;28;20408;-86
2022/05/17 10:46:11;;;;;;;12.02;5.30;;;23.60;99.90;;;;;;5041249;28;20049;-86
2022/05/17 10:49:09;;;;;;;10.05;6.13;;;23.50;99.90;;;;;;5027181;28;20131;-86
2022/05/17 10:52:05;;;;;;;10.20;5.35;;;23.40;99.90;;;;;;5041932;28;20428;-86
2022/05/17 10:55:28;;;;;;;13.07;6.40;;;23.40;99.90;;;;;;5046936;28;20049;-86
2022/05/17 10:58:04;;;;;;;11.27;5.45;;;23.30;99.90;;;;;;4990304;28;20041;-86
2022/05/17 11:00:37;;;;;;;13.25;6.57;;;23.30;99.90;;;;;;4990578;28;20499;-86
2022/05/17 11:03:26;;;;;;;12.70;5.60;;;23.30;99.90;;;;;;5006195;28;20157;-87
2022/05/17 11:06:07;;;;;;;12.43;5.53;;;23.50;99.90;;;;;;5002425;28;20060;-86
2022/05/17 11:08:32;;;;;;;11.50;5.72;;;23.60;99.90;;;;;;4992555;28;20060;-86
2022/05/17 11:11:25;;;;;;;10.45;5.35;;;23.80;99.90;;;;;;4990747;28;20137;-86
2022/05/17 11:13:56;;;;;;;11.02;5.57;;;23.90;99.90;;;;;;4991462;28;20045;-86
2022/05/17 11:16:24;;;;;;;10.55;5.65;;;24.00;99.90;;;;;;5003377;28;20042;-86
2022/05/17 11:19:01;;;;;;;12.07;5.22;;;;;;;;;;4988427;28;20088;-87
2022/05/17 11:21:37;;;;;;;9.15;5.28;;;24.20;99.90;;;;;;4985663;28;20053;-87
2022/05/17 11:24:32;;;;;;;10.38;5.55;;;24.20;99.90;;;;;;4987737;28;20192;-88
2022/05/17 11:27:18;;;;;;;12.38;6.20;;;24.20;99.90;;;;;;4988140;28;20503;-85
2022/05/17 11:30:08;;;;;;;13.68;5.78;;;24.20;99.90;;;;;;5039199;28;20061;-86
2022/05/17 11:32:42;;;;;;;10.70;5.90;;;24.10;99.90;;;;;;5044565;28;20055;-86
2022/05/17 11:35:26;;;;;;;10.00;4.95;;;24.10;99.90;;;;;;5042468;28;20060;-86
2022/05/17 11:37:52;;;;;;;9.90;5.15;;;23.90;99.90;;;;;;5044668;28;20045;-85
2022/05/17 11:40:52;;;;;;;10.73;5.72;;;23.90;99.90;;;;;;5043241;28;20099;-86
2022/05/17 11:43:41;;;;;;;9.65;5.10;;;23.70;99.90;;;;;;5042197;28;20447;-85
2022/05/17 11:46:25;;;;;;;8.88;4.72;;;23.50;99.90;;;;;;5041886;28;20497;-86
2022/05/17 11:49:30;;;;;;;11.40;4.95;;;23.60;99.90;;;;;;5044185;28;20041;-93
2022/05/17 11:51:59;;;;;;;11.48;4.90;;;23.40;99.90;;;;;;5041317;28;20222;-87
2022/05/17 11:54:42;;;;;;;11.57;4.88;;;23.50;99.90;;;;;;5040502;28;20494;-86
2022/05/17 11:57:38;;;;;;;12.00;4.95;;;23.60;99.90;;;;;;5044193;28;20099;-88
2022/05/17 12:00:23;;;;;;;10.82;5.22;;;23.50;99.90;;;;;;5028854;28;20094;-86
2022/05/17 12:02:51;;;;;;;11.55;5.15;;;23.60;99.90;;;;;;5045315;28;20116;-86
2022/05/17 12:05:43;;;;;;;9.40;4.95;;;23.70;99.90;;;;;;5049480;28;20049;-86
2022/05/17 12:08:27;;;;;;;9.40;4.40;;;23.70;99.90;;;;;;5029910;28;20040;-86
2022/05/17 12:11:11;;;;;;;12.65;5.28;;;23.70;99.90;;;;;;5046863;28;20086;-86
2022/05/17 12:14:07;;;;;;;9.40;4.78;;;23.40;99.90;;;;;;5028972;28;20101;-86
2022/05/17 12:16:34;;;;;;;8.93;4.50;;;23.40;99.90;;;;;;5038128;28;20383;-86
2022/05/17 12:19:13;;;;;;;7.47;3.97;;;23.30;99.90;;;;;;5046378;28;20064;-86
2022/05/17 12:22:28;;;;;;;11.77;4.10;;;23.10;99.90;;;;;;5031716;28;20060;-86
2022/05/17 12:25:15;;;;;;;9.30;3.87;;;22.90;99.90;;;;;;5027380;28;20106;-86
2022/05/17 12:27:43;;;;;;;10.80;4.05;;;22.90;99.90;;;;;;5034468;28;20561;-86
2022/05/17 12:33:22;;;;;;;7.68;4.03;;;22.80;99.90;;;;;;5029089;28;20060;-86
2022/05/17 12:35:49;;;;;;;10.90;3.80;;;22.80;99.90;;;;;;5028912;28;20060;-86
2022/05/17 12:44:07;;;;;;;6.22;3.42;;;22.50;99.90;;;;;;5042976;28;20514;-86
2022/05/17 12:46:36;;;;;;;;;;;22.40;99.90;;;;;;5031341;28;20427;-86
2022/05/17 12:49:15;;;;;;;6.65;3.00;;;22.30;99.90;;;;;;5032881;28;19921;-86
2022/05/17 12:51:41;;;;;;;6.85;3.08;;;22.20;99.90;;;;;;5032372;28;20050;-86
2022/05/17 12:54:13;;;;;;;9.07;2.92;;;22.10;99.90;;;;;;5033812;28;20132;-86
2022/05/17 12:56:43;;;;;;;7.65;2.85;;;22.20;99.90;;;;;;5039673;28;20076;-86
2022/05/17 12:59:11;;;;;;;4.10;2.38;;;21.80;99.90;;;;;;5052373;28;20044;-86
2022/05/17 13:01:42;;;;;;;5.57;3.10;;;21.80;99.90;;;;;;5053806;28;20131;-86
2022/05/17 13:04:15;;;;;;;6.18;2.78;;;21.80;99.90;;;;;;5053961;28;20094;-86
2022/05/17 13:06:49;;;;;;;5.68;2.45;;;21.90;99.90;;;;;;5047882;28;20060;-85
2022/05/17 13:09:17;;;;;;;5.80;2.50;;;22.10;99.90;;;;;;5044173;28;20041;-86
2022/05/17 13:11:43;;;;;;;5.70;2.35;;;22.10;99.90;;;;;;5046631;28;20177;-86
2022/05/17 13:14:20;;;;;;;5.10;2.40;;;22.10;99.90;;;;;;5045453;28;20476;-85
2022/05/17 13:16:47;;;;;;;6.25;2.40;;;22.20;99.90;;;;;;5046999;28;20271;-86
2022/05/17 13:19:15;;;;;;;7.13;2.20;;;22.60;99.90;;;;;;5032239;28;20045;-86
2022/05/17 13:21:45;;;;;;;7.90;3.00;;;22.70;99.90;;;;;;5034517;28;20045;-86
2022/05/17 13:24:30;;;;;;;5.43;2.42;;;22.70;99.90;;;;;;5044218;28;20123;-86